CAN3732 SKRG-SKBO
Flight info
| Callsign | CAN3732 |
|---|---|
| Flight time | 0h 33m |
| Altitude | 21000 |
| Route | ISVAT2B ISVAT W65 MQU DCT AMVES |
| Aircraft | B738/M-SDE2E3FGHIRWXY/LB1 |
Departure
| Time | 2026-05-07 01:33 |
|---|---|
| Airport | Jose Maria Córdova International Airport (SKRG) |
Arrival
| Time | 2026-05-07 02:06 |
|---|---|
| Airport | El Dorado International Airport (SKBO) |
| Time | Latitude | Longitude | Altitude | Speed | Heading |
|---|---|---|---|---|---|
| 2026-05-07 01:04 | 6.17001 | -75.42738 | 7015 ft | 0 kts | 316° |
| 2026-05-07 01:15 | 6.17001 | -75.42737 | 6988 ft | 2 kts | 316° |
| 2026-05-07 01:15 | 6.16989 | -75.42726 | 7019 ft | 2 kts | 315° |
| 2026-05-07 01:16 | 6.16978 | -75.42715 | 7018 ft | 2 kts | 340° |
| 2026-05-07 01:16 | 6.16962 | -75.42715 | 7020 ft | 2 kts | 28° |
| 2026-05-07 01:16 | 6.16950 | -75.42725 | 7019 ft | 2 kts | 54° |
| 2026-05-07 01:16 | 6.16950 | -75.42726 | 7019 ft | 0 kts | 54° |
| 2026-05-07 01:21 | 6.16950 | -75.42725 | 7019 ft | 1 kts | 54° |
| 2026-05-07 01:21 | 6.16964 | -75.42708 | 7020 ft | 5 kts | 47° |
| 2026-05-07 01:21 | 6.16998 | -75.42679 | 7015 ft | 8 kts | 38° |
| 2026-05-07 01:22 | 6.17036 | -75.42642 | 7017 ft | 7 kts | 58° |
| 2026-05-07 01:22 | 6.17038 | -75.42597 | 7018 ft | 7 kts | 124° |
| 2026-05-07 01:22 | 6.17001 | -75.42569 | 7016 ft | 7 kts | 148° |
| 2026-05-07 01:22 | 6.16962 | -75.42546 | 7015 ft | 6 kts | 149° |
| 2026-05-07 01:23 | 6.16920 | -75.42522 | 7017 ft | 8 kts | 149° |
| 2026-05-07 01:23 | 6.16881 | -75.42499 | 7017 ft | 11 kts | 154° |
| 2026-05-07 01:23 | 6.16775 | -75.42484 | 7011 ft | 12 kts | 180° |
| 2026-05-07 01:23 | 6.16695 | -75.42483 | 7013 ft | 11 kts | 179° |
| 2026-05-07 01:24 | 6.16644 | -75.42483 | 7009 ft | 11 kts | 179° |
| 2026-05-07 01:24 | 6.16568 | -75.42482 | 7005 ft | 11 kts | 179° |
| 2026-05-07 01:24 | 6.16494 | -75.42481 | 7002 ft | 10 kts | 179° |
| 2026-05-07 01:24 | 6.16423 | -75.42480 | 7004 ft | 10 kts | 179° |
| 2026-05-07 01:25 | 6.16353 | -75.42480 | 7001 ft | 10 kts | 179° |
| 2026-05-07 01:25 | 6.16284 | -75.42479 | 6996 ft | 11 kts | 179° |
| 2026-05-07 01:25 | 6.16195 | -75.42478 | 7000 ft | 16 kts | 180° |
| 2026-05-07 01:25 | 6.16018 | -75.42478 | 6997 ft | 23 kts | 180° |
| 2026-05-07 01:26 | 6.15911 | -75.42477 | 6995 ft | 22 kts | 179° |
| 2026-05-07 01:26 | 6.15767 | -75.42476 | 6989 ft | 21 kts | 179° |
| 2026-05-07 01:26 | 6.15635 | -75.42475 | 6988 ft | 18 kts | 180° |
| 2026-05-07 01:26 | 6.15512 | -75.42475 | 6988 ft | 17 kts | 180° |
| 2026-05-07 01:27 | 6.15392 | -75.42474 | 6986 ft | 17 kts | 179° |
| 2026-05-07 01:27 | 6.15277 | -75.42473 | 6984 ft | 16 kts | 179° |
| 2026-05-07 01:27 | 6.15167 | -75.42472 | 6982 ft | 16 kts | 180° |
| 2026-05-07 01:27 | 6.15060 | -75.42472 | 6980 ft | 15 kts | 179° |
| 2026-05-07 01:28 | 6.14969 | -75.42471 | 6978 ft | 13 kts | 180° |
| 2026-05-07 01:28 | 6.14895 | -75.42443 | 6974 ft | 11 kts | 118° |
| 2026-05-07 01:28 | 6.14889 | -75.42421 | 6976 ft | 0 kts | 96° |
| 2026-05-07 01:31 | 6.14889 | -75.42418 | 6976 ft | 4 kts | 95° |
| 2026-05-07 01:31 | 6.14891 | -75.42374 | 6976 ft | 8 kts | 76° |
| 2026-05-07 01:31 | 6.14932 | -75.42323 | 6977 ft | 10 kts | 27° |
| 2026-05-07 01:32 | 6.15007 | -75.42305 | 6978 ft | 14 kts | 8° |
| 2026-05-07 01:32 | 6.15216 | -75.42300 | 6984 ft | 58 kts | 359° |
| 2026-05-07 01:32 | 6.15861 | -75.42308 | 6993 ft | 125 kts | 359° |
| 2026-05-07 01:32 | 6.16926 | -75.42321 | 7044 ft | 177 kts | 360° |
| 2026-05-07 01:33 | 6.18251 | -75.42321 | 7668 ft | 199 kts | 1° |
| 2026-05-07 01:33 | 6.19657 | -75.42303 | 8420 ft | 203 kts | 2° |
| 2026-05-07 01:33 | 6.21056 | -75.42290 | 9189 ft | 206 kts | 5° |
| 2026-05-07 01:33 | 6.22484 | -75.41941 | 9621 ft | 214 kts | 31° |
| 2026-05-07 01:34 | 6.23649 | -75.41015 | 10164 ft | 214 kts | 55° |
| 2026-05-07 01:34 | 6.24319 | -75.39726 | 10789 ft | 206 kts | 79° |
| 2026-05-07 01:34 | 6.24372 | -75.38301 | 11314 ft | 207 kts | 102° |
| 2026-05-07 01:34 | 6.23801 | -75.36983 | 11747 ft | 213 kts | 128° |
| 2026-05-07 01:35 | 6.22642 | -75.36023 | 12336 ft | 217 kts | 148° |
| 2026-05-07 01:35 | 6.21311 | -75.35340 | 12925 ft | 219 kts | 151° |
| 2026-05-07 01:35 | 6.19980 | -75.34581 | 13470 ft | 220 kts | 141° |
| 2026-05-07 01:35 | 6.18816 | -75.33602 | 14081 ft | 219 kts | 133° |
| 2026-05-07 01:36 | 6.17747 | -75.32473 | 14461 ft | 227 kts | 128° |
| 2026-05-07 01:36 | 6.16598 | -75.31331 | 14761 ft | 243 kts | 140° |
| 2026-05-07 01:36 | 6.15069 | -75.30455 | 14970 ft | 263 kts | 153° |
| 2026-05-07 01:36 | 6.13317 | -75.29792 | 15360 ft | 277 kts | 158° |
| 2026-05-07 01:37 | 6.11438 | -75.29129 | 15661 ft | 295 kts | 157° |
| 2026-05-07 01:37 | 6.09493 | -75.28411 | 16305 ft | 294 kts | 156° |
| 2026-05-07 01:37 | 6.07592 | -75.27698 | 17162 ft | 293 kts | 156° |
| 2026-05-07 01:37 | 6.05627 | -75.26965 | 17401 ft | 312 kts | 155° |
| 2026-05-07 01:38 | 6.03561 | -75.26132 | 17897 ft | 317 kts | 154° |
| 2026-05-07 01:38 | 6.01537 | -75.25285 | 18705 ft | 317 kts | 155° |
| 2026-05-07 01:38 | 5.99472 | -75.24477 | 19232 ft | 321 kts | 156° |
| 2026-05-07 01:38 | 5.97375 | -75.23670 | 19780 ft | 324 kts | 156° |
| 2026-05-07 01:39 | 5.95250 | -75.22844 | 20277 ft | 330 kts | 156° |
| 2026-05-07 01:39 | 5.93094 | -75.21994 | 20749 ft | 336 kts | 156° |
| 2026-05-07 01:39 | 5.90898 | -75.21121 | 21081 ft | 347 kts | 156° |
| 2026-05-07 01:39 | 5.88598 | -75.20199 | 21074 ft | 364 kts | 156° |
| 2026-05-07 01:40 | 5.86191 | -75.19229 | 21076 ft | 380 kts | 156° |
| 2026-05-07 01:40 | 5.83687 | -75.18220 | 21081 ft | 391 kts | 156° |
| 2026-05-07 01:40 | 5.81128 | -75.17188 | 21080 ft | 403 kts | 156° |
| 2026-05-07 01:40 | 5.78485 | -75.16123 | 21087 ft | 415 kts | 156° |
| 2026-05-07 01:41 | 5.75775 | -75.15030 | 21087 ft | 425 kts | 156° |
| 2026-05-07 01:41 | 5.73005 | -75.13913 | 21079 ft | 432 kts | 156° |
| 2026-05-07 01:41 | 5.70213 | -75.12788 | 21074 ft | 430 kts | 156° |
| 2026-05-07 01:41 | 5.67459 | -75.11669 | 21077 ft | 425 kts | 156° |
| 2026-05-07 01:42 | 5.64733 | -75.10538 | 21079 ft | 423 kts | 156° |
| 2026-05-07 01:42 | 5.62009 | -75.09399 | 21082 ft | 422 kts | 156° |
| 2026-05-07 01:42 | 5.59298 | -75.08264 | 21086 ft | 423 kts | 155° |
| 2026-05-07 01:42 | 5.56582 | -75.07127 | 21097 ft | 424 kts | 155° |
| 2026-05-07 01:43 | 5.53854 | -75.05987 | 21095 ft | 425 kts | 156° |
| 2026-05-07 01:43 | 5.51119 | -75.04847 | 21084 ft | 427 kts | 156° |
| 2026-05-07 01:43 | 5.48414 | -75.03720 | 21073 ft | 427 kts | 156° |
| 2026-05-07 01:43 | 5.45671 | -75.02578 | 21052 ft | 428 kts | 156° |
| 2026-05-07 01:44 | 5.42878 | -75.01413 | 21027 ft | 428 kts | 156° |
| 2026-05-07 01:44 | 5.40127 | -75.00268 | 21009 ft | 429 kts | 156° |
| 2026-05-07 01:44 | 5.37392 | -74.99131 | 20920 ft | 418 kts | 156° |
| 2026-05-07 01:44 | 5.34722 | -74.98021 | 20483 ft | 412 kts | 155° |
| 2026-05-07 01:45 | 5.32107 | -74.96933 | 20104 ft | 404 kts | 155° |
| 2026-05-07 01:45 | 5.29535 | -74.95862 | 19707 ft | 397 kts | 155° |
| 2026-05-07 01:45 | 5.27005 | -74.94810 | 19333 ft | 390 kts | 155° |
| 2026-05-07 01:45 | 5.24512 | -74.93773 | 18968 ft | 385 kts | 155° |
| 2026-05-07 01:46 | 5.22156 | -74.92583 | 18602 ft | 376 kts | 143° |
| 2026-05-07 01:46 | 5.20174 | -74.90920 | 18254 ft | 368 kts | 131° |
| 2026-05-07 01:46 | 5.18609 | -74.88937 | 17843 ft | 356 kts | 119° |
| 2026-05-07 01:46 | 5.17414 | -74.86822 | 17440 ft | 343 kts | 117° |
| 2026-05-07 01:47 | 5.16277 | -74.84763 | 17071 ft | 331 kts | 117° |
| 2026-05-07 01:47 | 5.15187 | -74.82813 | 17006 ft | 311 kts | 117° |
| 2026-05-07 01:47 | 5.14125 | -74.80977 | 17015 ft | 302 kts | 118° |
| 2026-05-07 01:47 | 5.13152 | -74.79114 | 17015 ft | 300 kts | 106° |
| 2026-05-07 01:48 | 5.12868 | -74.77067 | 17035 ft | 297 kts | 85° |
| 2026-05-07 01:48 | 5.13345 | -74.75052 | 17053 ft | 299 kts | 68° |
| 2026-05-07 01:48 | 5.14467 | -74.73296 | 17059 ft | 303 kts | 49° |
| 2026-05-07 01:48 | 5.15976 | -74.71813 | 17055 ft | 304 kts | 45° |
| 2026-05-07 01:49 | 5.17536 | -74.70383 | 17069 ft | 304 kts | 45° |
| 2026-05-07 01:49 | 5.19100 | -74.68947 | 17075 ft | 304 kts | 45° |
| 2026-05-07 01:49 | 5.20646 | -74.67505 | 17080 ft | 303 kts | 45° |
| 2026-05-07 01:49 | 5.22182 | -74.66059 | 17096 ft | 302 kts | 45° |
| 2026-05-07 01:50 | 5.23715 | -74.64610 | 17100 ft | 302 kts | 45° |
| 2026-05-07 01:50 | 5.25069 | -74.63041 | 17145 ft | 295 kts | 62° |
| 2026-05-07 01:50 | 5.25893 | -74.61162 | 17146 ft | 295 kts | 70° |
| 2026-05-07 01:50 | 5.26606 | -74.59227 | 17156 ft | 297 kts | 71° |
| 2026-05-07 01:51 | 5.27316 | -74.57267 | 17180 ft | 304 kts | 70° |
| 2026-05-07 01:51 | 5.28052 | -74.55257 | 17181 ft | 307 kts | 70° |
| 2026-05-07 01:51 | 5.28794 | -74.53259 | 17177 ft | 305 kts | 70° |
| 2026-05-07 01:51 | 5.29535 | -74.51274 | 17232 ft | 304 kts | 70° |
| 2026-05-07 01:52 | 5.30283 | -74.49278 | 17227 ft | 306 kts | 70° |
| 2026-05-07 01:52 | 5.30940 | -74.47258 | 17225 ft | 303 kts | 80° |
| 2026-05-07 01:52 | 5.30980 | -74.45143 | 17236 ft | 305 kts | 94° |
| 2026-05-07 01:52 | 5.30793 | -74.43019 | 17230 ft | 306 kts | 94° |
| 2026-05-07 01:53 | 5.30603 | -74.40892 | 17211 ft | 306 kts | 94° |
| 2026-05-07 01:53 | 5.30424 | -74.38766 | 17257 ft | 307 kts | 94° |
| 2026-05-07 01:53 | 5.30243 | -74.36627 | 17263 ft | 308 kts | 97° |
| 2026-05-07 01:53 | 5.29573 | -74.34588 | 17258 ft | 312 kts | 118° |
| 2026-05-07 01:54 | 5.28166 | -74.32933 | 17261 ft | 317 kts | 139° |
| 2026-05-07 01:54 | 5.26209 | -74.31903 | 17290 ft | 323 kts | 161° |
| 2026-05-07 01:54 | 5.23951 | -74.31658 | 16962 ft | 333 kts | 184° |
| 2026-05-07 01:54 | 5.21701 | -74.32187 | 16609 ft | 330 kts | 193° |
| 2026-05-07 01:55 | 5.19530 | -74.32861 | 16242 ft | 323 kts | 194° |
| 2026-05-07 01:55 | 5.17418 | -74.33541 | 15953 ft | 314 kts | 194° |
| 2026-05-07 01:55 | 5.15374 | -74.34190 | 15636 ft | 303 kts | 194° |
| 2026-05-07 01:55 | 5.13408 | -74.34806 | 15430 ft | 289 kts | 193° |
| 2026-05-07 01:56 | 5.11529 | -74.35391 | 15214 ft | 276 kts | 192° |
| 2026-05-07 01:56 | 5.09756 | -74.35936 | 14954 ft | 263 kts | 192° |
| 2026-05-07 01:56 | 5.08034 | -74.36463 | 14736 ft | 248 kts | 192° |
| 2026-05-07 01:56 | 5.06452 | -74.36947 | 14524 ft | 235 kts | 191° |
| 2026-05-07 01:57 | 5.04907 | -74.37417 | 14341 ft | 231 kts | 191° |
| 2026-05-07 01:57 | 5.03363 | -74.37887 | 14208 ft | 234 kts | 191° |
| 2026-05-07 01:57 | 5.01786 | -74.38369 | 14037 ft | 239 kts | 191° |
| 2026-05-07 01:57 | 5.00197 | -74.38858 | 13795 ft | 237 kts | 191° |
| 2026-05-07 01:58 | 4.98639 | -74.39340 | 13557 ft | 231 kts | 191° |
| 2026-05-07 01:58 | 4.97147 | -74.39803 | 13352 ft | 219 kts | 191° |
| 2026-05-07 01:58 | 4.95721 | -74.40243 | 13143 ft | 210 kts | 191° |
| 2026-05-07 01:58 | 4.94350 | -74.40667 | 12954 ft | 203 kts | 192° |
| 2026-05-07 01:59 | 4.92995 | -74.41083 | 12800 ft | 206 kts | 191° |
| 2026-05-07 01:59 | 4.91606 | -74.41166 | 12619 ft | 198 kts | 157° |
| 2026-05-07 01:59 | 4.90492 | -74.40445 | 12477 ft | 189 kts | 128° |
| 2026-05-07 01:59 | 4.89692 | -74.39407 | 12342 ft | 189 kts | 123° |
| 2026-05-07 02:00 | 4.89434 | -74.39043 | 12295 ft | 190 kts | 123° |
| 2026-05-07 02:00 | 4.88415 | -74.37598 | 12082 ft | 191 kts | 123° |
| 2026-05-07 02:00 | 4.87388 | -74.36134 | 11909 ft | 192 kts | 123° |
| 2026-05-07 02:00 | 4.86626 | -74.35040 | 11726 ft | 189 kts | 123° |
| 2026-05-07 02:01 | 4.85869 | -74.33982 | 11607 ft | 186 kts | 124° |
| 2026-05-07 02:01 | 4.85109 | -74.32930 | 11482 ft | 184 kts | 124° |
| 2026-05-07 02:01 | 4.84242 | -74.31963 | 11375 ft | 193 kts | 139° |
| 2026-05-07 02:01 | 4.83203 | -74.31096 | 11197 ft | 193 kts | 137° |
| 2026-05-07 02:02 | 4.82205 | -74.30244 | 10981 ft | 182 kts | 137° |
| 2026-05-07 02:02 | 4.81269 | -74.29428 | 10893 ft | 178 kts | 135° |
| 2026-05-07 02:02 | 4.80326 | -74.28604 | 10871 ft | 183 kts | 137° |
| 2026-05-07 02:02 | 4.79365 | -74.27790 | 10821 ft | 176 kts | 137° |
| 2026-05-07 02:03 | 4.78557 | -74.26920 | 10776 ft | 166 kts | 126° |
| 2026-05-07 02:03 | 4.77848 | -74.25980 | 10577 ft | 169 kts | 126° |
| 2026-05-07 02:03 | 4.77145 | -74.25042 | 10482 ft | 169 kts | 126° |
| 2026-05-07 02:03 | 4.76450 | -74.24123 | 10213 ft | 160 kts | 126° |
| 2026-05-07 02:04 | 4.75772 | -74.23216 | 10022 ft | 164 kts | 125° |
| 2026-05-07 02:04 | 4.75096 | -74.22296 | 9836 ft | 165 kts | 126° |
| 2026-05-07 02:04 | 4.74405 | -74.21362 | 9626 ft | 168 kts | 127° |
| 2026-05-07 02:04 | 4.73716 | -74.20425 | 9288 ft | 167 kts | 126° |
| 2026-05-07 02:05 | 4.73006 | -74.19518 | 8956 ft | 163 kts | 127° |
| 2026-05-07 02:05 | 4.72335 | -74.18618 | 8686 ft | 160 kts | 127° |
| 2026-05-07 02:05 | 4.71656 | -74.17738 | 8552 ft | 162 kts | 128° |
| 2026-05-07 02:05 | 4.70993 | -74.16855 | 8392 ft | 156 kts | 126° |
| 2026-05-07 02:06 | 4.70414 | -74.16073 | 8362 ft | 99 kts | 127° |
| 2026-05-07 02:06 | 4.70180 | -74.15766 | 8361 ft | 36 kts | 127° |
| 2026-05-07 02:06 | 4.70060 | -74.15609 | 8362 ft | 19 kts | 126° |
| 2026-05-07 02:06 | 4.70052 | -74.15527 | 8361 ft | 11 kts | 52° |
| 2026-05-07 02:07 | 4.70074 | -74.15506 | 8361 ft | 0 kts | 40° |
| 2026-05-07 02:08 | 4.70076 | -74.15504 | 8361 ft | 3 kts | 40° |
| 2026-05-07 02:08 | 4.70101 | -74.15484 | 8361 ft | 6 kts | 38° |
| 2026-05-07 02:08 | 4.70145 | -74.15450 | 8362 ft | 10 kts | 40° |
| 2026-05-07 02:08 | 4.70167 | -74.15409 | 8362 ft | 11 kts | 83° |
| 2026-05-07 02:09 | 4.70126 | -74.15338 | 8362 ft | 13 kts | 128° |
| 2026-05-07 02:09 | 4.70070 | -74.15264 | 8363 ft | 13 kts | 127° |
| 2026-05-07 02:09 | 4.69999 | -74.15169 | 8363 ft | 13 kts | 127° |
| 2026-05-07 02:09 | 4.69964 | -74.15123 | 8363 ft | 12 kts | 127° |
| 2026-05-07 02:10 | 4.69896 | -74.15034 | 8363 ft | 12 kts | 127° |
| 2026-05-07 02:10 | 4.69852 | -74.14976 | 8363 ft | 9 kts | 127° |
| 2026-05-07 02:10 | 4.69813 | -74.14924 | 8364 ft | 9 kts | 127° |
| 2026-05-07 02:10 | 4.69786 | -74.14888 | 8363 ft | 10 kts | 127° |
| 2026-05-07 02:11 | 4.69760 | -74.14819 | 8363 ft | 11 kts | 74° |
| 2026-05-07 02:11 | 4.69811 | -74.14768 | 8363 ft | 10 kts | 36° |
| 2026-05-07 02:11 | 4.69839 | -74.14713 | 8364 ft | 9 kts | 106° |
| 2026-05-07 02:11 | 4.69811 | -74.14657 | 8364 ft | 9 kts | 109° |
| 2026-05-07 02:12 | 4.69799 | -74.14599 | 8364 ft | 8 kts | 92° |
| 2026-05-07 02:12 | 4.69813 | -74.14563 | 8364 ft | 4 kts | 49° |
| 2026-05-07 02:12 | 4.69817 | -74.14559 | 8364 ft | 0 kts | 49° |